• Join FlightAware (Why Join?)
  • Login
  • US Flag 
02:27AM EDT


 

Airport Tracker/Info


-or-


 

Live Flight TrackerFlight Track Log ✈ ASQ4944 ✈ 14 de Jul de 2013 ✈ KBTR - KATL

Flight Track Log - Related Links

Times and Time Zones

All times are in EDT time to prevent confusion due to time zone crossing. See the ASQ4944 flight status page for this flight to view local times or setup timezone preferences in your user account.

Time Position Orientation Groundspeed Altitude Reporting Facility
EDT Latitude Longitude Course Direction KTS MPH feet Rate Location/Type
03:15PM 30.5717 -91.1064 60° Northeast 190 219 27,000  Level Houston Center
03:16PM 30.6158 -91.0686 36° Northeast 227 261 4,000 -10,020 Descending Houston Center
03:17PM 30.6786 -91.0006 43° Northeast 251 289 6,400 2,280 Climbing Houston Center
03:18PM 30.7339 -90.9344 46° Northeast 266 306 8,800 1,740 Climbing Houston Center
03:19PM 30.8119 -90.8839 29° Northeast 307 353 10,000 720 Climbing Houston Center
03:20PM 30.8997 -90.8447 21° North 346 398 10,400 960 Climbing Houston Center
03:21PM 30.7349 -90.5134 60° Northeast  Level FlightAware Approximate
03:21PM 30.9919 -90.7994 23° Northeast 361 415 12,100  Level Houston Center
03:23PM 31.0786 -90.7547 24° Northeast 350 403 13,900 1,680 Climbing Houston Center
03:24PM 31.1497 -90.6511 51° Northeast 342 394 15,600 1,200 Climbing Houston Center
03:25PM 31.2228 -90.5686 44° Northeast 360 414 16,500 840 Climbing Houston Center
03:26PM 31.3122 -90.5025 32° Northeast 378 435 17,400 720 Climbing Houston Center
03:27PM 31.4083 -90.4436 28° Northeast 387 445 18,000 600 Climbing Houston Center
03:28PM 31.4919 -90.3564 42° Northeast 405 466 18,700 660 Climbing Houston Center
03:29PM 31.5550 -90.2483 56° Northeast 403 464 19,400 720 Climbing Houston Center
03:30PM 31.6317 -90.1158 56° Northeast 408 470 20,200 1,020 Climbing Houston Center
03:31PM 31.6958 -90.0058 56° Northeast 407 468 21,600 1,200 Climbing Houston Center
03:32PM 31.7558 -89.9017 56° Northeast 390 449 22,700 960 Climbing Houston Center
03:33PM 31.8203 -89.7919 55° Northeast 389 448 23,700 900 Climbing Houston Center
03:34PM 31.8811 -89.6853 56° Northeast 391 450 24,600 720 Climbing Houston Center
03:35PM 31.9203 -89.6183 55° Northeast 391 450 25,000 540 Climbing Memphis Center
03:36PM 31.9822 -89.5125 55° Northeast 391 450 25,500 480 Climbing Memphis Center
03:37PM 32.0439 -89.3992 57° Northeast 391 450 26,000 600 Climbing Memphis Center
03:38PM 32.1139 -89.2758 56° Northeast 399 459 26,800 480 Climbing Memphis Center
03:39PM 32.1778 -89.1669 55° Northeast 399 459 27,000 60 Climbing Memphis Center
03:40PM 32.2433 -89.0481 57° Northeast 404 465 27,000  Level Memphis Center
03:41PM 32.3089 -88.9317 56° Northeast 419 482 27,000  Level Memphis Center
03:42PM 32.3761 -88.8078 57° Northeast 424 488 27,000  Level Memphis Center
03:43PM 32.3975 -88.6744 79° East 407 468 27,000  Level Memphis Center
03:44PM 32.4106 -88.5658 82° East 407 468 27,000  Level Memphis Center
03:45PM 32.4250 -88.4156 83° East 412 474 27,000  Level Memphis Center
03:46PM 32.4417 -88.2772 82° East 418 481 27,000  Level Memphis Center
03:47PM 32.4561 -88.1489 82° East 410 472 27,000  Level Memphis Center
03:47PM 32.4656 -88.0689 82° East 399 459 27,000  Level Atlanta Center
03:48PM 32.4908 -87.9297 78° East 392 451 27,000  Level Atlanta Center
03:49PM 32.5178 -87.8028 76° East 387 445 27,000  Level Atlanta Center
03:50PM 32.5425 -87.6781 77° East 393 452 27,000  Level Atlanta Center
03:51PM 32.5756 -87.5439 74° East 398 458 27,000  Level Atlanta Center
03:52PM 32.6022 -87.4094 77° East 410 472 27,000 -60 Level Atlanta Center
03:53PM 32.6331 -87.2725 75° East 416 479 26,900 -300 Descending Atlanta Center
03:54PM 32.6594 -87.1450 76° East 416 479 26,400 -660 Descending Atlanta Center
03:55PM 32.6831 -87.0300 76° East 391 450 25,600 -900 Descending Atlanta Center
03:56PM 32.6919 -86.9192 85° East 356 410 24,600 -840 Descending Atlanta Center
03:57PM 32.7050 -86.8011 82° East 348 400 24,000 -300 Descending Atlanta Center
03:58PM 32.7117 -86.6878 86° East 343 395 24,000  Level Atlanta Center
03:59PM 32.7161 -86.5744 87° East 343 395 24,000  Level Atlanta Center
04:00PM 32.7228 -86.4586 86° East 349 402 24,000  Level Atlanta Center
04:01PM 32.7250 -86.3450 89° East 349 402 24,000  Level Atlanta Center
04:02PM 32.7289 -86.2439 87° East 343 395 24,000  Level Atlanta Center
04:03PM 32.7328 -86.1303 88° East 338 389 24,000 -180 Level Atlanta Center
04:04PM 32.7367 -86.0192 88° East 343 395 23,700 -660 Descending Atlanta Center
04:05PM 32.7406 -85.9058 88° East 348 400 22,700 -900 Descending Atlanta Center
04:06PM 32.7528 -85.7950 83° East 343 395 22,000 -420 Descending Atlanta Center
04:07PM 32.8019 -85.6969 59° Northeast 330 380 21,900 -600 Descending Atlanta Center
04:08PM 32.8533 -85.6017 57° Northeast 337 388 20,900 -960 Descending Atlanta Center
04:09PM 32.9006 -85.5036 60° Northeast 337 388 20,000 -900 Descending Atlanta Center
04:10PM 32.9561 -85.3981 58° Northeast 348 400 19,200 -1,200 Descending Atlanta Center
04:11PM 33.0072 -85.2897 61° Northeast 361 415 17,700 -1,800 Descending Atlanta Center
04:12PM 33.0603 -85.1989 55° Northeast 353 406 15,600 -2,280 Descending Atlanta Center
04:13PM 33.1258 -85.1078 49° Northeast 331 381 13,200 -1,800 Descending Atlanta Center
04:14PM 33.1850 -85.0317 47° Northeast 313 360 12,000 -1,020 Descending Atlanta Center
04:15PM 33.2378 -84.9603 49° Northeast 296 341 11,200 -1,500 Descending Atlanta Center
04:16PM 33.3047 -84.9089 33° Northeast 284 327 9,100 -1,620 Descending Atlanta Center
04:17PM 33.3883 -84.9194 354° North 276 318 8,000 -720 Descending Atlanta Center
04:18PM 33.4697 -84.9303 354° North 281 323 7,700 -540 Descending Atlanta Center
04:19PM 33.5511 -84.9286 North 287 330 7,000 -360 Descending Atlanta Center
04:20PM 33.6200 -84.9019 18° North 287 330 7,000  Level Atlanta Center
04:21PM 33.6333 -84.8667 66° East 229 264 7,000 -300 Level Atlanta TRACON
04:22PM 33.6333 -84.7833 90° East 210 242 6,500 -840 Descending Atlanta TRACON
04:23PM 33.6333 -84.7333 90° East 188 216 5,400 -1,080 Descending Atlanta TRACON
04:24PM 33.6333 -84.6667 90° East 188 216 4,400 -960 Descending Atlanta TRACON
04:25PM 33.6333 -84.6000 90° East 184 212 3,400 -960 Descending Atlanta TRACON
04:26PM 33.6333 -84.5333 90° East 166 191 2,500 -840 Descending Atlanta TRACON
04:27PM 33.6333 -84.4833 90° East 143 165 1,800 -720 Descending Atlanta TRACON
04:29PM 33.6367 -84.4279 90° East  Level Estimated
04:36PM 33.6367 -84.4279 292° West  Level Estimated
04:37PM 33.6367 -84.4279 292° West  Level Estimated